Welcome to Northern Hawkes Bay. New Zealand.
PWS Header
      nz Flag



Hit Counter


W3C Valid W3C Valid logo


    Wairoa

Select any of the Stations below to visit their websites.










Historic Data from Weather Underground
Select the location of interest below. Wairoa is the default. Please have patience, this Data is slow to load in.
Northern Hawkes Bay Historical Data
Daily Summary for May 31, 2017 Units:  Metric    English   Both
« Previous Day
Next Day »
Daily Weekly Monthly Yearly Custom
  High: Low: Average:
Temperature: 17.4 °C 8.2 °C 11.1 °C
Dew Point: 12.4 °C 7.9 °C 9.5 °C
Humidity: 99% 70% 91%
Wind Speed: 12.2km/h 0.0km/h 5km/h
Wind Gust: 15.8km/h - -
Wind- - WNW
Pressure: 1016.1 hPa 1012.1 hPa -
Precipitation: 1.5 mm    
Historical Graphs
 
 
Tabular Data for May 31, 2017
Time Temperature Dew Point Pressure Wind Wind Speed Wind Gust Humidity Rainfall Rate (Hourly) solar
00:01 8.3 °C 8.2 °C 1014.4 hPa NNW 7.2 km/h 13.4 km/h 99% 0.0 mm 0 W/m2
00:06 8.2 °C 8.1 °C 1014.1 hPa NW 8.7 km/h 13.4 km/h 99% 0.0 mm 0 W/m2
00:11 8.3 °C 8.2 °C 1014.1 hPa NNW 6.1 km/h 11.1 km/h 99% 0.0 mm 0 W/m2
00:16 8.3 °C 8.2 °C 1014.1 hPa NNW 6.1 km/h 12.2 km/h 99% 0.0 mm 0 W/m2
00:21 8.3 °C 8.2 °C 1014.1 hPa NNW 5.0 km/h 12.2 km/h 99% 0.0 mm 0 W/m2
00:26 8.3 °C 8.2 °C 1014.1 hPa North 6.1 km/h 11.1 km/h 99% 0.0 mm 0 W/m2
00:31 8.3 °C 8.2 °C 1014.1 hPa NNW 7.2 km/h 9.7 km/h 99% 0.0 mm 0 W/m2
00:36 8.3 °C 8.2 °C 1014.1 hPa NW 8.7 km/h 12.2 km/h 99% 0.0 mm 0 W/m2
00:41 8.3 °C 8.2 °C 1014.1 hPa NW 9.7 km/h 15.8 km/h 99% 0.0 mm 0 W/m2
00:46 8.4 °C 8.3 °C 1014.1 hPa NNW 12.2 km/h 15.8 km/h 99% 0.0 mm 0 W/m2
01:06 8.4 °C 8.3 °C 1013.8 hPa NW 6.1 km/h 12.2 km/h 99% 0.0 mm 0 W/m2
01:11 8.4 °C 8.3 °C 1014.1 hPa NW 8.7 km/h 13.4 km/h 99% 0.0 mm 0 W/m2
01:16 8.5 °C 8.3 °C 1014.1 hPa NW 7.2 km/h 13.4 km/h 99% 0.0 mm 0 W/m2
01:21 8.5 °C 8.2 °C 1014.1 hPa NNW 11.1 km/h 14.8 km/h 98% 0.0 mm 0 W/m2
01:26 8.5 °C 8.2 °C 1014.1 hPa NW 8.7 km/h 14.8 km/h 98% 0.0 mm 0 W/m2
01:28 8.5 °C 8.2 °C 1013.8 hPa NW 7.2 km/h 14.8 km/h 98% 0.0 mm 0 W/m2
01:33 8.5 °C 8.1 °C 1014.1 hPa NNW 5.0 km/h 14.8 km/h 97% 0.0 mm 0 W/m2
01:38 8.5 °C 8.1 °C 1014.1 hPa NNW 6.1 km/h 12.2 km/h 97% 0.0 mm 0 W/m2
01:43 8.5 °C 8.1 °C 1013.8 hPa NW 5.0 km/h 11.1 km/h 97% 0.0 mm 0 W/m2
01:48 8.5 °C 8.1 °C 1014.1 hPa NNW 5.0 km/h 9.7 km/h 97% 0.0 mm 0 W/m2
01:53 8.5 °C 8.1 °C 1013.8 hPa NNW 3.5 km/h 11.1 km/h 97% 0.0 mm 0 W/m2
01:58 8.5 °C 8.1 °C 1014.1 hPa NW 6.1 km/h 11.1 km/h 97% 0.0 mm 0 W/m2
02:03 8.6 °C 8.2 °C 1013.8 hPa NW 5.0 km/h 13.4 km/h 97% 0.0 mm 0 W/m2
02:08 8.6 °C 8.2 °C 1014.1 hPa NW 7.2 km/h 13.4 km/h 97% 0.0 mm 0 W/m2
02:13 8.6 °C 8.2 °C 1014.1 hPa NW 8.7 km/h 12.2 km/h 97% 0.0 mm 0 W/m2
02:18 8.6 °C 8.2 °C 1014.1 hPa NW 6.1 km/h 12.2 km/h 97% 0.0 mm 0 W/m2
02:23 8.6 °C 8.2 °C 1013.8 hPa NW 5.0 km/h 12.2 km/h 97% 0.0 mm 0 W/m2
02:28 8.6 °C 8.2 °C 1013.8 hPa NW 7.2 km/h 11.1 km/h 97% 0.0 mm 0 W/m2
02:33 8.5 °C 8.1 °C 1013.8 hPa NW 8.7 km/h 14.8 km/h 97% 0.0 mm 0 W/m2
02:38 8.5 °C 8.1 °C 1013.8 hPa NNW 9.7 km/h 14.8 km/h 97% 0.0 mm 0 W/m2
02:43 8.5 °C 8.1 °C 1013.8 hPa NNW 8.7 km/h 14.8 km/h 97% 0.0 mm 0 W/m2
02:48 8.6 °C 8.2 °C 1013.8 hPa NW 8.7 km/h 14.8 km/h 97% 0.0 mm 0 W/m2
02:53 8.6 °C 8.2 °C 1013.4 hPa NNW 8.7 km/h 14.8 km/h 97% 0.0 mm 0 W/m2
02:58 8.6 °C 8.2 °C 1013.4 hPa NNW 8.7 km/h 13.4 km/h 97% 0.0 mm 0 W/m2
03:03 8.6 °C 8.2 °C 1013.4 hPa NNW 8.7 km/h 13.4 km/h 97% 0.0 mm 0 W/m2
03:08 8.6 °C 8.2 °C 1013.4 hPa NW 7.2 km/h 12.2 km/h 97% 0.0 mm 0 W/m2
03:13 8.6 °C 8.2 °C 1013.4 hPa NW 8.7 km/h 12.2 km/h 97% 0.0 mm 0 W/m2
03:18 8.6 °C 8.2 °C 1013.4 hPa NW 8.7 km/h 13.4 km/h 97% 0.0 mm 0 W/m2
03:23 8.6 °C 8.2 °C 1013.4 hPa NW 8.7 km/h 14.8 km/h 97% 0.0 mm 0 W/m2
03:28 8.6 °C 8.2 °C 1013.1 hPa NW 7.2 km/h 14.8 km/h 97% 0.0 mm 0 W/m2
03:33 8.6 °C 8.2 °C 1013.1 hPa NW 7.2 km/h 12.2 km/h 97% 0.0 mm 0 W/m2
03:38 8.6 °C 8.2 °C 1013.1 hPa NNW 7.2 km/h 12.2 km/h 97% 0.0 mm 0 W/m2
03:43 8.6 °C 8.2 °C 1012.8 hPa NNW 6.1 km/h 12.2 km/h 97% 0.0 mm 0 W/m2
03:48 8.6 °C 8.2 °C 1012.8 hPa NNW 7.2 km/h 12.2 km/h 97% 0.0 mm 0 W/m2
03:53 8.6 °C 8.2 °C 1012.8 hPa NNW 8.7 km/h 12.2 km/h 97% 0.0 mm 0 W/m2
03:58 8.5 °C 8.1 °C 1012.8 hPa NNW 7.2 km/h 11.1 km/h 97% 0.0 mm 0 W/m2
04:03 8.5 °C 8.1 °C 1012.4 hPa NW 7.2 km/h 12.2 km/h 97% 0.0 mm 0 W/m2
04:08 8.5 °C 8.1 °C 1012.4 hPa NNW 5.0 km/h 12.2 km/h 97% 0.0 mm 0 W/m2
04:13 8.5 °C 8.1 °C 1012.4 hPa North 6.1 km/h 12.2 km/h 97% 0.0 mm 0 W/m2
04:18 8.5 °C 8.1 °C 1012.4 hPa NNW 6.1 km/h 12.2 km/h 97% 0.0 mm 0 W/m2
04:23 8.5 °C 8.1 °C 1012.4 hPa NW 7.2 km/h 11.1 km/h 97% 0.0 mm 0 W/m2
04:28 8.6 °C 8.2 °C 1012.4 hPa NW 11.1 km/h 13.4 km/h 97% 0.0 mm 0 W/m2
04:33 8.6 °C 8.2 °C 1012.4 hPa NNW 8.7 km/h 13.4 km/h 97% 0.0 mm 0 W/m2
04:38 8.6 °C 8.2 °C 1012.1 hPa NNW 6.1 km/h 13.4 km/h 97% 0.0 mm 0 W/m2
04:43 8.6 °C 8.2 °C 1012.1 hPa NNW 6.1 km/h 14.8 km/h 97% 0.0 mm 0 W/m2
04:48 8.6 °C 8.2 °C 1012.4 hPa NNW 7.2 km/h 14.8 km/h 97% 0.0 mm 0 W/m2
04:53 8.6 °C 8.2 °C 1012.1 hPa NW 6.1 km/h 11.1 km/h 97% 0.0 mm 0 W/m2
04:58 8.6 °C 8.2 °C 1012.1 hPa NNW 7.2 km/h 12.2 km/h 97% 0.0 mm 0 W/m2
05:03 8.6 °C 8.2 °C 1012.1 hPa NNW 8.7 km/h 12.2 km/h 97% 0.0 mm 0 W/m2
05:08 8.6 °C 8.2 °C 1012.1 hPa NNW 7.2 km/h 11.1 km/h 97% 0.0 mm 0 W/m2
05:13 8.6 °C 8.2 °C 1012.1 hPa NNW 6.1 km/h 12.2 km/h 97% 0.0 mm 0 W/m2
05:18 8.7 °C 8.3 °C 1012.1 hPa NNW 6.1 km/h 12.2 km/h 97% 0.0 mm 0 W/m2
05:23 8.7 °C 8.3 °C 1012.1 hPa NNW 5.0 km/h 9.7 km/h 97% 0.0 mm 0 W/m2
05:33 8.7 °C 8.3 °C 1012.1 hPa NNW 7.2 km/h 11.1 km/h 97% 0.0 mm 0 W/m2
05:38 8.7 °C 8.3 °C 1012.1 hPa NNW 8.7 km/h 13.4 km/h 97% 0.0 mm 0 W/m2
05:43 8.7 °C 8.3 °C 1012.1 hPa NNW 7.2 km/h 13.4 km/h 97% 0.0 mm 0 W/m2
05:48 8.7 °C 8.3 °C 1012.1 hPa NNW 3.5 km/h 12.2 km/h 97% 0.0 mm 0 W/m2
05:53 8.6 °C 8.0 °C 1012.1 hPa NNW 3.5 km/h 11.1 km/h 96% 0.0 mm 0 W/m2
05:58 8.5 °C 7.9 °C 1012.4 hPa NNW 6.1 km/h 8.7 km/h 96% 0.0 mm 0 W/m2
06:03 8.5 °C 8.1 °C 1012.4 hPa NNW 3.5 km/h 8.7 km/h 97% 0.0 mm 0 W/m2
06:08 8.4 °C 7.9 °C 1012.4 hPa North 2.6 km/h 6.1 km/h 97% 0.0 mm 0 W/m2
06:13 8.4 °C 7.9 °C 1012.4 hPa North 5.0 km/h 8.7 km/h 97% 0.0 mm 0 W/m2
06:18 8.6 °C 8.2 °C 1012.4 hPa NNW 8.7 km/h 12.2 km/h 97% 0.0 mm 0 W/m2
06:23 8.7 °C 8.3 °C 1012.4 hPa NNW 7.2 km/h 13.4 km/h 97% 0.0 mm 0 W/m2
06:28 8.7 °C 8.3 °C 1012.4 hPa NNW 3.5 km/h 13.4 km/h 97% 0.0 mm 0 W/m2
06:33 8.8 °C 8.3 °C 1012.8 hPa NNW 8.7 km/h 12.2 km/h 97% 0.0 mm 0 W/m2
06:38 8.7 °C 8.3 °C 1012.8 hPa NW 6.1 km/h 12.2 km/h 97% 0.0 mm 0 W/m2
06:43 8.7 °C 8.3 °C 1012.4 hPa NNW 5.0 km/h 12.2 km/h 97% 0.0 mm 0 W/m2
06:48 8.7 °C 8.3 °C 1012.8 hPa NNW 6.1 km/h 9.7 km/h 97% 0.0 mm 0 W/m2
06:53 8.7 °C 8.3 °C 1012.8 hPa NNW 6.1 km/h 9.7 km/h 97% 0.0 mm 0 W/m2
06:58 8.8 °C 8.3 °C 1012.4 hPa NW 6.1 km/h 11.1 km/h 97% 0.0 mm 0 W/m2
07:03 8.7 °C 8.3 °C 1012.8 hPa NW 6.1 km/h 11.1 km/h 97% 0.0 mm 0 W/m2
07:08 8.7 °C 8.3 °C 1012.8 hPa NNW 7.2 km/h 11.1 km/h 97% 0.0 mm 0 W/m2
07:13 8.7 °C 8.3 °C 1012.8 hPa NNW 6.1 km/h 9.7 km/h 97% 0.0 mm 0 W/m2
07:18 8.7 °C 8.3 °C 1012.8 hPa NW 5.0 km/h 9.7 km/h 97% 0.0 mm 0 W/m2
07:23 8.7 °C 8.3 °C 1012.8 hPa NW 2.6 km/h 9.7 km/h 97% 0.0 mm 2 W/m2
07:28 8.6 °C 8.2 °C 1012.8 hPa WNW 2.6 km/h 8.7 km/h 97% 0.0 mm 4 W/m2
07:33 8.6 °C 8.2 °C 1012.8 hPa West 3.5 km/h 7.2 km/h 97% 0.0 mm 8 W/m2
07:38 8.6 °C 8.2 °C 1013.1 hPa West 5.0 km/h 7.2 km/h 97% 0.0 mm 14 W/m2
07:43 8.7 °C 8.3 °C 1013.1 hPa WNW 3.5 km/h 7.2 km/h 97% 0.0 mm 15 W/m2
07:48 8.7 °C 8.3 °C 1013.1 hPa WNW 3.5 km/h 7.2 km/h 97% 0.0 mm 19 W/m2
07:53 8.8 °C 8.3 °C 1013.1 hPa NW 2.6 km/h 7.2 km/h 97% 0.0 mm 23 W/m2
07:58 8.8 °C 8.3 °C 1013.1 hPa NW 5.0 km/h 7.2 km/h 97% 0.0 mm 26 W/m2
08:03 8.8 °C 8.3 °C 1013.1 hPa NW 5.0 km/h 9.7 km/h 97% 0.0 mm 28 W/m2
08:08 8.9 °C 8.4 °C 1013.4 hPa NW 3.5 km/h 9.7 km/h 97% 0.0 mm 32 W/m2
08:13 8.9 °C 8.4 °C 1013.4 hPa NNW 2.6 km/h 7.2 km/h 97% 0.0 mm 35 W/m2
08:18 9.0 °C 8.4 °C 1013.4 hPa North 2.6 km/h 5.0 km/h 96% 0.0 mm 38 W/m2
08:23 9.1 °C 8.5 °C 1013.4 hPa North 3.5 km/h 6.1 km/h 96% 0.0 mm 41 W/m2
08:28 9.1 °C 8.5 °C 1013.4 hPa North 1.1 km/h 6.1 km/h 96% 0.0 mm 46 W/m2
08:45 9.5 °C 8.9 °C 1013.4 hPa NNW 2.6 km/h 6.1 km/h 96% 0.0 mm 83 W/m2
08:50 9.6 °C 9.0 °C 1013.4 hPa NNW 2.6 km/h 7.2 km/h 96% 0.0 mm 89 W/m2
08:56 9.8 °C 9.2 °C 1013.8 hPa NNW 5.0 km/h 8.7 km/h 96% 0.0 mm 87 W/m2
09:01 10.0 °C 9.1 °C 1013.4 hPa NW 5.0 km/h 8.7 km/h 94% 0.0 mm 79 W/m2
09:06 10.0 °C 9.1 °C 1013.4 hPa NW 3.5 km/h 7.2 km/h 94% 0.0 mm 72 W/m2
09:11 10.0 °C 9.1 °C 1013.4 hPa NW 6.1 km/h 7.2 km/h 94% 0.0 mm 70 W/m2
09:16 10.0 °C 9.1 °C 1013.8 hPa NW 5.0 km/h 8.7 km/h 94% 0.0 mm 65 W/m2
09:21 10.0 °C 9.1 °C 1013.8 hPa NNW 5.0 km/h 8.7 km/h 94% 0.0 mm 66 W/m2
09:26 10.1 °C 9.2 °C 1013.8 hPa NNW 3.5 km/h 8.7 km/h 94% 0.0 mm 69 W/m2
09:31 10.2 °C 9.3 °C 1013.8 hPa NNW 3.5 km/h 8.7 km/h 94% 0.0 mm 80 W/m2
09:36 10.3 °C 9.4 °C 1013.8 hPa NNW 2.6 km/h 6.1 km/h 94% 0.0 mm 97 W/m2
09:41 10.4 °C 9.5 °C 1013.8 hPa NNW 3.5 km/h 8.7 km/h 94% 0.0 mm 114 W/m2
09:46 10.6 °C 9.7 °C 1013.8 hPa NW 7.2 km/h 8.7 km/h 94% 0.0 mm 133 W/m2
09:51 11.1 °C 10.0 °C 1014.1 hPa NW 5.0 km/h 9.7 km/h 93% 0.0 mm 139 W/m2
09:56 11.3 °C 10.1 °C 1014.1 hPa NNW 3.5 km/h 9.7 km/h 92% 0.0 mm 139 W/m2
10:01 11.3 °C 9.7 °C 1014.1 hPa NNW 6.1 km/h 11.1 km/h 90% 0.0 mm 130 W/m2
10:05 11.4 °C 9.7 °C 1014.4 hPa NNW 5.0 km/h 11.1 km/h 89% 0.0 mm 122 W/m2
10:10 11.5 °C 9.6 °C 1014.1 hPa NNW 8.7 km/h 9.7 km/h 88% 0.0 mm 118 W/m2
10:16 11.7 °C 9.6 °C 1014.1 hPa North 6.1 km/h 9.7 km/h 87% 0.0 mm 127 W/m2
10:21 11.7 °C 9.4 °C 1014.1 hPa NNW 5.0 km/h 9.7 km/h 86% 0.0 mm 126 W/m2
10:26 11.8 °C 9.6 °C 1014.1 hPa NNW 5.0 km/h 9.7 km/h 86% 0.0 mm 122 W/m2
10:31 11.9 °C 9.6 °C 1014.4 hPa NNW 5.0 km/h 9.7 km/h 86% 0.0 mm 104 W/m2
10:36 12.0 °C 9.6 °C 1014.1 hPa NW 6.1 km/h 9.7 km/h 85% 0.0 mm 83 W/m2
10:41 12.5 °C 10.1 °C 1014.4 hPa NW 6.1 km/h 9.7 km/h 85% 0.0 mm 75 W/m2
10:46 13.0 °C 10.6 °C 1014.8 hPa NNW 7.2 km/h 8.7 km/h 85% 0.0 mm 70 W/m2
10:51 13.2 °C 10.6 °C 1014.8 hPa NW 6.1 km/h 8.7 km/h 84% 0.0 mm 65 W/m2
10:56 13.6 °C 10.6 °C 1014.8 hPa NW 3.5 km/h 8.7 km/h 82% 0.0 mm 61 W/m2
11:01 14.1 °C 10.9 °C 1014.8 hPa NW 3.5 km/h 7.2 km/h 81% 0.0 mm 60 W/m2
11:06 14.7 °C 11.3 °C 1014.8 hPa NW 2.6 km/h 7.2 km/h 80% 0.0 mm 59 W/m2
11:11 15.0 °C 11.0 °C 1014.8 hPa WNW 3.5 km/h 6.1 km/h 77% 0.0 mm 59 W/m2
11:16 15.1 °C 10.9 °C 1014.8 hPa WNW 3.5 km/h 6.1 km/h 76% 0.0 mm 60 W/m2
11:21 15.5 °C 11.1 °C 1014.8 hPa WNW 2.6 km/h 6.1 km/h 75% 0.0 mm 60 W/m2
11:26 15.9 °C 11.3 °C 1014.8 hPa WNW 2.6 km/h 6.1 km/h 74% 0.0 mm 61 W/m2
11:31 16.0 °C 10.9 °C 1014.4 hPa NNW 2.6 km/h 6.1 km/h 72% 0.0 mm 61 W/m2
11:36 16.7 °C 11.6 °C 1014.4 hPa NNW 2.6 km/h 6.1 km/h 72% 0.0 mm 62 W/m2
11:41 16.8 °C 11.7 °C 1014.4 hPa SSW 6.1 km/h 9.7 km/h 72% 0.0 mm 65 W/m2
11:46 16.2 °C 11.6 °C 1014.4 hPa South 3.5 km/h 9.7 km/h 74% 0.0 mm 70 W/m2
11:51 16.3 °C 11.7 °C 1014.4 hPa South 7.2 km/h 9.7 km/h 74% 0.0 mm 66 W/m2
11:56 15.8 °C 11.6 °C 1014.4 hPa South 7.2 km/h 11.1 km/h 76% 0.0 mm 93 W/m2
12:01 15.4 °C 11.4 °C 1014.4 hPa South 5.0 km/h 11.1 km/h 77% 0.0 mm 79 W/m2
12:06 15.3 °C 11.5 °C 1014.1 hPa South 6.1 km/h 11.1 km/h 78% 0.0 mm 73 W/m2
12:11 15.4 °C 11.6 °C 1014.1 hPa South 7.2 km/h 11.1 km/h 78% 0.0 mm 91 W/m2
12:16 15.5 °C 11.7 °C 1013.8 hPa South 6.1 km/h 12.2 km/h 78% 0.0 mm 96 W/m2
12:21 15.7 °C 12.1 °C 1014.1 hPa South 7.2 km/h 12.2 km/h 79% 0.0 mm 90 W/m2
12:26 15.3 °C 11.9 °C 1013.8 hPa South 7.2 km/h 12.2 km/h 80% 0.0 mm 102 W/m2
12:31 15.3 °C 11.9 °C 1013.8 hPa South 6.1 km/h 12.2 km/h 80% 0.0 mm 75 W/m2
12:36 15.9 °C 12.1 °C 1013.8 hPa South 5.0 km/h 9.7 km/h 78% 0.0 mm 66 W/m2
12:41 16.2 °C 11.8 °C 1013.8 hPa South 6.1 km/h 9.7 km/h 75% 0.0 mm 70 W/m2
12:46 16.3 °C 11.7 °C 1013.8 hPa South 7.2 km/h 9.7 km/h 74% 0.0 mm 64 W/m2
12:51 16.5 °C 11.8 °C 1013.8 hPa South 5.0 km/h 9.7 km/h 74% 0.0 mm 64 W/m2
12:56 16.9 °C 12.1 °C 1013.8 hPa South 5.0 km/h 9.7 km/h 73% 0.0 mm 64 W/m2
13:01 17.0 °C 11.7 °C 1013.4 hPa South 5.0 km/h 9.7 km/h 71% 0.0 mm 64 W/m2
13:06 16.4 °C 11.6 °C 1013.4 hPa South 8.7 km/h 11.1 km/h 73% 0.0 mm 64 W/m2
13:11 16.1 °C 11.4 °C 1013.4 hPa South 8.7 km/h 11.1 km/h 74% 0.0 mm 63 W/m2
13:16 16.3 °C 11.9 °C 1013.4 hPa South 7.2 km/h 11.1 km/h 75% 0.0 mm 64 W/m2
13:21 16.7 °C 12.3 °C 1013.4 hPa SSW 8.7 km/h 11.1 km/h 75% 0.0 mm 64 W/m2
13:38 16.8 °C 12.3 °C 1013.4 hPa SSW 6.1 km/h 11.1 km/h 75% 0.0 mm 69 W/m2
13:43 17.0 °C 12.1 °C 1013.4 hPa SSW 6.1 km/h 11.1 km/h 73% 0.0 mm 71 W/m2
13:48 17.2 °C 12.3 °C 1013.4 hPa SSW 5.0 km/h 9.7 km/h 73% 0.0 mm 73 W/m2
13:53 17.3 °C 12.2 °C 1013.1 hPa South 5.0 km/h 9.7 km/h 72% 0.0 mm 74 W/m2
13:58 17.1 °C 12.0 °C 1013.4 hPa SSW 6.1 km/h 9.7 km/h 72% 0.0 mm 75 W/m2
14:03 16.6 °C 11.7 °C 1013.1 hPa SSW 6.1 km/h 12.2 km/h 73% 0.0 mm 87 W/m2
14:08 16.7 °C 12.1 °C 1013.1 hPa SSW 7.2 km/h 12.2 km/h 74% 0.0 mm 140 W/m2
14:13 16.8 °C 12.2 °C 1013.4 hPa SSW 6.1 km/h 12.2 km/h 74% 0.0 mm 229 W/m2
14:18 16.7 °C 12.1 °C 1013.1 hPa SSW 7.2 km/h 11.1 km/h 74% 0.0 mm 268 W/m2
14:23 16.8 °C 12.2 °C 1013.4 hPa SW 6.1 km/h 11.1 km/h 74% 0.0 mm 267 W/m2
14:28 16.9 °C 12.2 °C 1013.4 hPa SSW 7.2 km/h 11.1 km/h 74% 0.0 mm 263 W/m2
14:33 16.7 °C 11.8 °C 1013.4 hPa SSW 9.7 km/h 12.2 km/h 73% 0.0 mm 258 W/m2
14:38 16.2 °C 11.8 °C 1013.1 hPa SW 7.2 km/h 13.4 km/h 75% 0.0 mm 253 W/m2
14:43 16.0 °C 11.8 °C 1013.4 hPa SW 7.2 km/h 14.8 km/h 76% 0.0 mm 247 W/m2
14:48 15.8 °C 11.8 °C 1013.1 hPa SW 8.7 km/h 14.8 km/h 77% 0.0 mm 238 W/m2
14:53 16.1 °C 12.1 °C 1013.4 hPa SW 6.1 km/h 12.2 km/h 77% 0.0 mm 231 W/m2
14:58 16.4 °C 12.4 °C 1013.4 hPa SW 5.0 km/h 12.2 km/h 77% 0.0 mm 225 W/m2
15:03 16.9 °C 12.4 °C 1013.4 hPa SW 9.7 km/h 11.1 km/h 75% 0.0 mm 217 W/m2
15:09 16.5 °C 12.1 °C 1013.4 hPa SSW 6.1 km/h 11.1 km/h 75% 0.0 mm 207 W/m2
15:14 16.3 °C 11.7 °C 1013.4 hPa SSW 7.2 km/h 13.4 km/h 74% 0.0 mm 198 W/m2
15:19 16.5 °C 12.1 °C 1013.4 hPa SSW 6.1 km/h 13.4 km/h 75% 0.0 mm 187 W/m2
15:24 16.7 °C 12.1 °C 1013.4 hPa South 3.5 km/h 11.1 km/h 74% 0.0 mm 175 W/m2
15:29 17.0 °C 12.1 °C 1013.4 hPa South 6.1 km/h 11.1 km/h 73% 0.0 mm 162 W/m2
15:34 16.7 °C 11.8 °C 1013.4 hPa SSW 6.1 km/h 11.1 km/h 73% 0.0 mm 149 W/m2
15:39 16.8 °C 11.9 °C 1013.4 hPa South 7.2 km/h 11.1 km/h 73% 0.0 mm 132 W/m2
15:44 17.1 °C 12.0 °C 1013.4 hPa South 5.0 km/h 8.7 km/h 72% 0.0 mm 116 W/m2
15:49 16.9 °C 11.8 °C 1013.4 hPa South 6.1 km/h 8.7 km/h 72% 0.0 mm 102 W/m2
15:54 16.7 °C 11.8 °C 1013.4 hPa South 6.1 km/h 8.7 km/h 73% 0.0 mm 89 W/m2
15:59 16.8 °C 11.7 °C 1013.4 hPa South 3.5 km/h 8.7 km/h 72% 0.0 mm 77 W/m2
16:04 16.9 °C 11.6 °C 1013.4 hPa South 5.0 km/h 7.2 km/h 71% 0.0 mm 66 W/m2
16:09 16.8 °C 11.7 °C 1013.4 hPa South 2.6 km/h 7.2 km/h 72% 0.0 mm 55 W/m2
16:14 16.9 °C 11.6 °C 1013.8 hPa South 2.6 km/h 7.2 km/h 71% 0.0 mm 46 W/m2
16:19 17.0 °C 11.5 °C 1013.8 hPa South 2.6 km/h 6.1 km/h 70% 0.0 mm 39 W/m2
16:24 17.1 °C 11.8 °C 1013.8 hPa SSW 1.1 km/h 6.1 km/h 71% 0.0 mm 33 W/m2
16:29 17.4 °C 12.1 °C 1013.8 hPa SW 1.1 km/h 5.0 km/h 71% 0.0 mm 27 W/m2
16:34 17.2 °C 11.9 °C 1013.8 hPa SW 1.1 km/h 3.5 km/h 71% 0.0 mm 21 W/m2
16:39 16.3 °C 11.3 °C 1013.8 hPa SSW 1.1 km/h 3.5 km/h 72% 0.0 mm 13 W/m2
16:44 15.3 °C 10.9 °C 1013.8 hPa Calm   2.6 km/h 75% 0.0 mm 12 W/m2
16:49 14.7 °C 10.7 °C 1013.8 hPa Calm   2.6 km/h 77% 0.0 mm 6 W/m2
16:54 14.0 °C 10.2 °C 1013.8 hPa Calm   1.1 km/h 78% 0.0 mm 4 W/m2
16:59 13.3 °C 9.9 °C 1013.8 hPa Calm     80% 0.0 mm 2 W/m2
17:04 12.9 °C 9.7 °C 1014.1 hPa Calm     81% 0.0 mm 0 W/m2
17:09 12.5 °C 9.5 °C 1013.8 hPa Calm     82% 0.0 mm 0 W/m2
17:14 12.2 °C 9.4 °C 1014.1 hPa Calm     83% 0.0 mm 0 W/m2
17:19 12.0 °C 9.4 °C 1014.1 hPa North 1.1 km/h 2.6 km/h 84% 0.0 mm 0 W/m2
17:25 11.8 °C 9.7 °C 1014.1 hPa NNW 2.6 km/h 3.5 km/h 87% 0.0 mm 0 W/m2
17:30 11.6 °C 9.7 °C 1014.1 hPa NNW 2.6 km/h 5.0 km/h 88% 0.0 mm 0 W/m2
17:36 11.3 °C 9.7 °C 1014.1 hPa NNW 1.1 km/h 5.0 km/h 90% 0.0 mm 0 W/m2
17:41 11.2 °C 9.8 °C 1014.1 hPa North 1.1 km/h 2.6 km/h 91% 0.0 mm 0 W/m2
17:46 11.2 °C 9.8 °C 1013.8 hPa NNE 1.1 km/h 3.5 km/h 91% 0.0 mm 0 W/m2
17:51 11.2 °C 9.9 °C 1014.1 hPa North 1.1 km/h 3.5 km/h 92% 0.0 mm 0 W/m2
17:56 11.2 °C 10.1 °C 1014.1 hPa North 1.1 km/h 3.5 km/h 93% 0.0 mm 0 W/m2
18:01 11.0 °C 9.9 °C 1014.1 hPa NNW 1.1 km/h 2.6 km/h 93% 0.0 mm 0 W/m2
18:06 10.8 °C 9.9 °C 1014.1 hPa NW 1.1 km/h 3.5 km/h 94% 0.0 mm 0 W/m2
18:11 10.8 °C 9.9 °C 1014.1 hPa North 2.6 km/h 5.0 km/h 94% 0.0 mm 0 W/m2
18:16 10.7 °C 9.9 °C 1014.4 hPa North 2.6 km/h 5.0 km/h 95% 0.0 mm 0 W/m2
18:21 10.6 °C 9.8 °C 1014.4 hPa NNW 3.5 km/h 5.0 km/h 95% 0.0 mm 0 W/m2
18:26 10.4 °C 9.6 °C 1014.4 hPa NNW 1.1 km/h 5.0 km/h 95% 0.0 mm 0 W/m2
18:31 10.4 °C 9.6 °C 1014.4 hPa North 2.6 km/h 5.0 km/h 95% 0.0 mm 0 W/m2
18:36 10.3 °C 9.7 °C 1014.4 hPa North 2.6 km/h 5.0 km/h 96% 0.0 mm 0 W/m2
18:41 10.2 °C 9.6 °C 1014.8 hPa North 2.6 km/h 3.5 km/h 96% 0.0 mm 0 W/m2
18:46 10.1 °C 9.5 °C 1014.8 hPa NNW 2.6 km/h 6.1 km/h 96% 0.0 mm 0 W/m2
18:51 10.0 °C 9.4 °C 1014.8 hPa NNW 2.6 km/h 6.1 km/h 96% 0.0 mm 0 W/m2
18:56 9.9 °C 9.4 °C 1014.8 hPa North 2.6 km/h 5.0 km/h 97% 0.0 mm 0 W/m2
19:01 9.8 °C 9.3 °C 1014.8 hPa North 3.5 km/h 5.0 km/h 97% 0.0 mm 0 W/m2
19:06 9.7 °C 9.2 °C 1014.8 hPa NNW 2.6 km/h 5.0 km/h 97% 0.0 mm 0 W/m2
19:11 9.5 °C 9.2 °C 1014.8 hPa NNW 2.6 km/h 5.0 km/h 98% 0.0 mm 0 W/m2
19:16 9.5 °C 9.2 °C 1014.8 hPa NNW 2.6 km/h 5.0 km/h 98% 0.0 mm 0 W/m2
19:21 9.4 °C 9.1 °C 1015.1 hPa North 2.6 km/h 5.0 km/h 98% 0.0 mm 0 W/m2
19:26 9.4 °C 9.1 °C 1014.8 hPa North 2.6 km/h 5.0 km/h 98% 0.0 mm 0 W/m2
19:31 9.3 °C 9.0 °C 1014.8 hPa NNW 3.5 km/h 5.0 km/h 98% 0.0 mm 0 W/m2
19:36 9.2 °C 8.9 °C 1014.8 hPa NW 3.5 km/h 5.0 km/h 98% 0.0 mm 0 W/m2
19:39 9.2 °C 8.9 °C 1014.8 hPa NW 5.0 km/h 6.1 km/h 98% 0.0 mm 0 W/m2
19:44 9.2 °C 8.9 °C 1015.1 hPa NW 3.5 km/h 7.2 km/h 98% 0.0 mm 0 W/m2
19:48 9.1 °C 8.8 °C 1015.1 hPa NW 2.6 km/h 7.2 km/h 98% 0.0 mm 0 W/m2
19:53 9.0 °C 8.7 °C 1015.1 hPa NNW 3.5 km/h 6.1 km/h 98% 0.0 mm 0 W/m2
19:58 9.0 °C 8.8 °C 1015.1 hPa NNW 3.5 km/h 6.1 km/h 99% 0.0 mm 0 W/m2
20:03 8.9 °C 8.8 °C 1015.1 hPa NNW 3.5 km/h 6.1 km/h 99% 0.0 mm 0 W/m2
20:08 8.9 °C 8.8 °C 1015.1 hPa NNW 2.6 km/h 6.1 km/h 99% 0.0 mm 0 W/m2
20:26 8.9 °C 8.8 °C 1015.5 hPa NNW 2.6 km/h 7.2 km/h 99% 0.0 mm 0 W/m2
20:31 8.9 °C 8.8 °C 1015.5 hPa NNW 2.6 km/h 7.2 km/h 99% 0.0 mm 0 W/m2
20:36 8.8 °C 8.7 °C 1015.5 hPa NNW 2.6 km/h 6.1 km/h 99% 0.0 mm 0 W/m2
20:41 8.7 °C 8.6 °C 1015.5 hPa NW 3.5 km/h 6.1 km/h 99% 0.0 mm 0 W/m2
20:46 8.6 °C 8.4 °C 1015.5 hPa NW 5.0 km/h 6.1 km/h 99% 0.0 mm 0 W/m2
20:51 8.7 °C 8.6 °C 1015.5 hPa NW 3.5 km/h 6.1 km/h 99% 0.0 mm 0 W/m2
20:56 8.8 °C 8.7 °C 1015.5 hPa NNW 3.5 km/h 6.1 km/h 99% 0.0 mm 0 W/m2
21:01 8.9 °C 8.8 °C 1015.5 hPa NNW 5.0 km/h 7.2 km/h 99% 0.0 mm 0 W/m2
21:06 9.0 °C 8.8 °C 1015.5 hPa NNW 5.0 km/h 7.2 km/h 99% 0.0 mm 0 W/m2
21:11 9.1 °C 8.9 °C 1015.8 hPa NNW 5.0 km/h 7.2 km/h 99% 0.3 mm 0 W/m2
21:16 9.2 °C 9.1 °C 1015.8 hPa NNW 3.5 km/h 7.2 km/h 99% 0.3 mm 0 W/m2
21:21 9.4 °C 9.3 °C 1015.8 hPa NNW 5.0 km/h 7.2 km/h 99% 0.3 mm 0 W/m2
21:26 9.5 °C 9.3 °C 1015.8 hPa NNW 5.0 km/h 8.7 km/h 99% 0.3 mm 0 W/m2
21:31 9.6 °C 9.4 °C 1015.8 hPa NNW 7.2 km/h 9.7 km/h 99% 0.3 mm 0 W/m2
21:36 9.6 °C 9.4 °C 1015.8 hPa NW 6.1 km/h 9.7 km/h 99% 0.3 mm 0 W/m2
21:41 9.5 °C 9.3 °C 1016.1 hPa WNW 2.6 km/h 9.7 km/h 99% 1.0 mm 0 W/m2
21:46 9.5 °C 9.3 °C 1016.1 hPa NW 1.1 km/h 7.2 km/h 99% 1.3 mm 0 W/m2
21:51 9.5 °C 9.3 °C 1016.1 hPa North 2.6 km/h 6.1 km/h 99% 1.5 mm 0 W/m2
21:56 9.6 °C 9.4 °C 1015.8 hPa NNE 2.6 km/h 7.2 km/h 99% 1.5 mm 0 W/m2
22:01 9.7 °C 9.6 °C 1015.8 hPa North 2.6 km/h 7.2 km/h 99% 1.5 mm 0 W/m2
22:06 9.8 °C 9.7 °C 1015.8 hPa North 3.5 km/h 7.2 km/h 99% 1.5 mm 0 W/m2
22:11 9.8 °C 9.7 °C 1016.1 hPa NNW 3.5 km/h 8.7 km/h 99% 1.3 mm 0 W/m2
22:16 9.8 °C 9.7 °C 1015.8 hPa NNW 6.1 km/h 9.7 km/h 99% 1.3 mm 0 W/m2
22:21 9.7 °C 9.6 °C 1015.8 hPa NW 5.0 km/h 9.7 km/h 99% 1.3 mm 0 W/m2
22:26 9.6 °C 9.4 °C 1015.8 hPa NW 3.5 km/h 9.7 km/h 99% 1.3 mm 0 W/m2
22:31 9.5 °C 9.3 °C 1015.8 hPa NW 5.0 km/h 7.2 km/h 99% 1.3 mm 0 W/m2
22:36 9.4 °C 9.3 °C 1015.8 hPa NNW 7.2 km/h 8.7 km/h 99% 1.3 mm 0 W/m2
22:41 9.4 °C 9.3 °C 1015.8 hPa NNW 3.5 km/h 8.7 km/h 99% 0.3 mm 0 W/m2
22:46 9.3 °C 9.2 °C 1015.8 hPa NW 3.5 km/h 8.7 km/h 99% 0.3 mm 0 W/m2
22:51 9.2 °C 9.1 °C 1015.8 hPa NW 2.6 km/h 7.2 km/h 99% 0.0 mm 0 W/m2
22:57 9.2 °C 9.1 °C 1016.1 hPa NNW 3.5 km/h 6.1 km/h 99% 0.0 mm 0 W/m2
23:02 9.1 °C 8.9 °C 1016.1 hPa NNW 3.5 km/h 6.1 km/h 99% 0.0 mm 0 W/m2
23:07 9.1 °C 8.9 °C 1016.1 hPa NNW 2.6 km/h 6.1 km/h 99% 0.0 mm 0 W/m2
23:12 9.1 °C 8.9 °C 1016.1 hPa North 2.6 km/h 6.1 km/h 99% 0.0 mm 0 W/m2
23:17 9.1 °C 8.9 °C 1016.1 hPa North 2.6 km/h 5.0 km/h 99% 0.0 mm 0 W/m2
23:22 9.1 °C 8.9 °C 1016.1 hPa NNW 3.5 km/h 5.0 km/h 99% 0.0 mm 0 W/m2
23:27 9.1 °C 8.9 °C 1016.1 hPa NNW 3.5 km/h 7.2 km/h 99% 0.0 mm 0 W/m2
23:32 9.2 °C 9.1 °C 1016.1 hPa NNW 2.6 km/h 7.2 km/h 99% 0.0 mm 0 W/m2
23:37 9.2 °C 9.1 °C 1016.1 hPa NW 1.1 km/h 6.1 km/h 99% 0.0 mm 0 W/m2
23:42 9.2 °C 9.1 °C 1016.1 hPa NW 2.6 km/h 5.0 km/h 99% 0.0 mm 0 W/m2
23:47 9.2 °C 9.1 °C 1016.1 hPa NW 3.5 km/h 6.1 km/h 99% 0.0 mm 0 W/m2
23:52 9.2 °C 9.1 °C 1016.1 hPa NW 2.6 km/h 6.1 km/h 99% 0.0 mm 0 W/m2
23:57 9.2 °C 9.1 °C 1016.1 hPa NW 2.6 km/h 6.1 km/h 99% 0.0 mm 0 W/m2
Northern Hawkes Bay. New Zealand Historic Data
Compliments of Weather Underground - 2.25 mb